Time;durP1;ratioP1;P1;durP2;ratioP2;P2;SDS_P1;SDS_P2;PMS_P1;PMS_P2;Temp;Humidity;BMP_temperature;BMP_pressure;BME280_temperature;BME280_humidity;BME280_pressure;Samples;Min_cycle;Max_cycle;Signal;HPM_P1;HPM_P2
2021/08/21 00:02:11;;;;;;;7.80;6.03;;;;;;;20.93;56.41;96851.31;5071027;28;20214;-71
2021/08/21 00:04:37;;;;;;;7.87;6.43;;;;;;;20.96;56.12;96857.00;5070778;28;20189;-70
2021/08/21 00:07:06;;;;;;;6.57;5.87;;;;;;;20.96;56.04;96858.88;5066296;28;20221;-70
2021/08/21 00:09:33;;;;;;;8.47;6.30;;;;;;;20.91;56.09;96856.06;5071202;28;21119;-70
2021/08/21 00:11:59;;;;;;;5.80;5.30;;;;;;;20.86;55.76;96854.09;5055523;28;20433;-70
2021/08/21 00:14:24;;;;;;;7.30;6.30;;;;;;;20.81;56.00;96854.78;5067929;28;20428;-69
2021/08/21 00:16:50;;;;;;;7.83;6.37;;;;;;;20.80;56.28;96854.97;5071055;28;20267;-71
2021/08/21 00:19:16;;;;;;;8.40;6.10;;;;;;;20.79;56.33;96850.72;5061506;28;20183;-69
2021/08/21 00:21:41;;;;;;;6.97;5.83;;;;;;;20.80;56.34;96849.66;5071092;28;20222;-70
2021/08/21 00:24:07;;;;;;;8.07;6.90;;;;;;;20.70;57.23;96855.50;5070139;28;20186;-70
2021/08/21 00:26:33;;;;;;;11.60;6.57;;;;;;;20.74;57.20;96850.53;5070951;28;20202;-70
2021/08/21 00:28:58;;;;;;;9.00;6.23;;;;;;;20.79;57.13;96851.50;5070347;28;20194;-70
2021/08/21 00:31:24;;;;;;;13.17;6.33;;;;;;;20.80;56.91;96847.00;5069981;28;20597;-71
2021/08/21 00:33:49;;;;;;;6.53;5.93;;;;;;;20.78;57.12;96849.09;5069357;28;20184;-70
2021/08/21 00:36:15;;;;;;;7.13;6.43;;;;;;;20.65;58.08;96850.88;5067109;28;20213;-70
2021/08/21 00:38:41;;;;;;;8.10;6.80;;;;;;;20.68;57.83;96845.06;5070447;28;20198;-70
2021/08/21 00:41:07;;;;;;;8.23;6.87;;;;;;;20.68;57.97;96844.28;5070379;28;20692;-71
2021/08/21 00:43:35;;;;;;;11.93;6.57;;;;;;;20.68;57.70;96847.72;5070341;28;20226;-70
2021/08/21 00:46:01;;;;;;;10.47;7.00;;;;;;;20.71;57.94;96843.81;5069502;28;20482;-70
2021/08/21 00:48:26;;;;;;;7.40;6.60;;;;;;;20.68;57.94;96847.72;5068291;28;20432;-70
2021/08/21 00:50:52;;;;;;;8.60;6.90;;;;;;;20.74;57.89;96845.22;5056507;28;20245;-70
2021/08/21 00:53:18;;;;;;;9.80;5.90;;;;;;;20.69;58.01;96845.91;5058889;28;20218;-70
2021/08/21 00:55:47;;;;;;;10.23;8.63;;;;;;;20.65;57.78;96837.56;5052719;28;20518;-70
2021/08/21 00:58:12;;;;;;;8.53;7.43;;;;;;;20.63;57.72;96844.94;5070683;28;20433;-71
2021/08/21 01:00:38;;;;;;;7.93;7.13;;;;;;;20.56;57.82;96831.72;5069587;28;20936;-71
2021/08/21 01:03:04;;;;;;;6.90;6.20;;;;;;;20.50;57.86;96829.16;5070366;28;20182;-71
2021/08/21 01:05:30;;;;;;;13.20;6.77;;;;;;;20.48;57.97;96833.88;5065692;28;20186;-70
2021/08/21 01:07:56;;;;;;;6.47;5.87;;;;;;;20.46;58.04;96830.63;5070194;28;20961;-70
2021/08/21 01:10:21;;;;;;;7.00;5.40;;;;;;;20.45;58.11;96831.66;5069176;28;20217;-70
2021/08/21 01:12:51;;;;;;;7.63;6.50;;;;;;;20.42;58.38;96835.59;5070391;28;20240;-70
2021/08/21 01:15:23;;;;;;;8.60;6.20;;;;;;;20.26;58.91;96826.38;5057272;28;20186;-70
2021/08/21 01:17:50;;;;;;;8.63;6.23;;;;;;;19.95;60.18;96836.97;5074422;28;20908;-70
2021/08/21 01:20:16;;;;;;;7.07;5.50;;;;;;;20.09;59.70;96832.31;5048516;28;20429;-71
2021/08/21 01:22:42;;;;;;;6.33;5.70;;;;;;;20.14;59.07;96830.84;5074124;28;20432;-71
2021/08/21 01:25:10;;;;;;;8.40;5.50;;;;;;;20.17;58.89;96833.03;5072811;28;20197;-71
2021/08/21 01:27:36;;;;;;;8.67;6.63;;;;;;;20.14;59.29;96828.97;5073456;28;20210;-69
2021/08/21 01:30:02;;;;;;;7.77;6.97;;;;;;;20.05;59.40;96835.63;5073113;28;20432;-70
2021/08/21 01:32:28;;;;;;;6.60;5.87;;;;;;;20.03;59.77;96827.88;5073008;28;20182;-69
2021/08/21 01:34:54;;;;;;;7.83;6.50;;;;;;;20.00;59.83;96828.31;5071125;28;20515;-70
2021/08/21 01:37:21;;;;;;;8.70;6.57;;;;;;;19.70;60.85;96828.22;5054772;28;20215;-71
2021/08/21 01:39:48;;;;;;;7.90;6.27;;;;;;;19.60;61.05;96829.50;5073797;28;20497;-71
2021/08/21 01:42:14;;;;;;;7.27;6.50;;;;;;;19.58;61.25;96828.09;5070951;28;20464;-70
2021/08/21 01:44:41;;;;;;;7.60;6.63;;;;;;;19.52;61.29;96826.34;5072207;28;20486;-70
2021/08/21 01:47:08;;;;;;;6.73;6.10;;;;;;;19.52;61.39;96829.00;5073320;28;20935;-70
2021/08/21 01:49:33;;;;;;;7.43;6.70;;;;;;;19.39;61.68;96822.78;5072871;28;20421;-70
2021/08/21 01:52:04;;;;;;;6.90;6.20;;;;;;;19.39;61.67;96830.75;5073772;28;20420;-71
2021/08/21 01:54:31;;;;;;;10.60;6.80;;;;;;;19.42;61.56;96827.63;5073156;28;20561;-69
2021/08/21 01:56:59;;;;;;;7.40;6.70;;;;;;;19.29;62.21;96825.06;5073592;28;20448;-70
2021/08/21 01:59:44;;;;;;;7.17;6.47;;;;;;;19.23;62.43;96825.97;5072924;28;20425;-69
2021/08/21 02:02:15;;;;;;;7.63;6.83;;;;;;;19.04;63.30;96825.88;5072954;28;20492;-70
2021/08/21 02:04:41;;;;;;;7.77;7.00;;;;;;;19.10;62.78;96825.03;5072774;28;20511;-69
2021/08/21 02:07:07;;;;;;;8.20;6.90;;;;;;;19.12;62.76;96822.16;5068550;28;20455;-70
2021/08/21 02:09:34;;;;;;;7.23;6.30;;;;;;;19.15;62.42;96822.53;5073403;28;20186;-69
2021/08/21 02:12:01;;;;;;;8.03;6.23;;;;;;;19.18;62.28;96822.09;5073282;28;20417;-71
2021/08/21 02:14:27;;;;;;;7.40;6.70;;;;;;;19.19;62.09;96817.63;5056186;28;20436;-71
2021/08/21 02:16:55;;;;;;;6.73;6.00;;;;;;;19.18;61.97;96826.63;5072000;28;20552;-71
2021/08/21 02:19:21;;;;;;;6.77;6.07;;;;;;;19.07;62.39;96824.66;5064051;28;20482;-70
2021/08/21 02:21:49;;;;;;;7.43;6.30;;;;;;;18.92;63.04;96814.31;5072387;28;20522;-70
2021/08/21 02:24:16;;;;;;;7.90;6.90;;;;;;;18.90;62.85;96819.03;5071362;28;20428;-70
2021/08/21 02:26:45;;;;;;;10.13;6.57;;;;;;;18.86;63.00;96811.50;5073063;28;20444;-71
2021/08/21 02:29:11;;;;;;;7.30;6.60;;;;;;;18.85;63.19;96811.69;5072113;28;20424;-71
2021/08/21 02:31:37;;;;;;;6.40;5.70;;;;;;;18.87;63.05;96809.63;5073427;28;20428;-71
2021/08/21 02:34:03;;;;;;;8.40;6.00;;;;;;;18.84;62.87;96808.25;5072716;28;20186;-72
2021/08/21 02:36:29;;;;;;;9.17;6.57;;;;;;;18.82;62.90;96804.97;5058376;28;20206;-69
2021/08/21 02:38:54;;;;;;;7.77;6.37;;;;;;;18.83;62.91;96813.78;5073929;28;20439;-71
2021/08/21 02:41:20;;;;;;;6.60;6.00;;;;;;;18.84;62.79;96805.59;5070632;28;20498;-70
2021/08/21 02:43:45;;;;;;;7.40;6.10;;;;;;;18.83;62.70;96806.59;5072083;28;20186;-70
2021/08/21 02:46:11;;;;;;;7.47;6.70;;;;;;;18.87;62.60;96805.16;5072837;28;20211;-71
2021/08/21 02:48:37;;;;;;;6.77;6.10;;;;;;;18.86;62.28;96803.53;5072818;28;20182;-71
2021/08/21 02:51:02;;;;;;;9.40;6.60;;;;;;;18.81;62.63;96802.56;5072957;28;20277;-70
2021/08/21 02:53:28;;;;;;;6.47;5.93;;;;;;;18.79;62.48;96792.13;5071854;28;20273;-69
2021/08/21 02:55:54;;;;;;;6.53;5.73;;;;;;;18.77;62.73;96793.38;5072725;28;20672;-69
2021/08/21 02:58:19;;;;;;;6.50;5.87;;;;;;;18.80;62.61;96798.28;5055005;28;20190;-70
2021/08/21 03:00:45;;;;;;;7.33;6.10;;;;;;;18.81;62.54;96789.28;5071742;28;20213;-70
2021/08/21 03:03:14;;;;;;;7.60;6.23;;;;;;;18.80;62.36;96799.06;5070934;28;20235;-69
2021/08/21 03:05:40;;;;;;;10.17;6.03;;;;;;;18.80;62.49;96791.09;5052631;28;20187;-70
2021/08/21 03:08:06;;;;;;;7.73;6.43;;;;;;;18.81;62.51;96797.25;5072143;28;20578;-69
2021/08/21 03:10:32;;;;;;;7.10;6.40;;;;;;;18.79;62.47;96797.44;5072350;28;20186;-69
2021/08/21 03:12:57;;;;;;;6.50;5.80;;;;;;;18.78;62.56;96795.00;5072152;28;20428;-71
2021/08/21 03:15:24;;;;;;;7.53;6.37;;;;;;;18.76;62.75;96797.91;5053641;28;20460;-69
2021/08/21 03:17:51;;;;;;;6.27;5.67;;;;;;;18.78;62.84;96795.81;5066925;28;20573;-71
2021/08/21 03:20:17;;;;;;;6.47;5.77;;;;;;;18.57;63.27;96800.44;5063269;28;20431;-70
2021/08/21 03:22:42;;;;;;;6.47;5.87;;;;;;;18.46;63.58;96801.13;5060900;28;20438;-72
2021/08/21 03:25:08;;;;;;;7.90;7.13;;;;;;;18.41;63.62;96796.47;5041138;28;20274;-70
2021/08/21 03:27:34;;;;;;;7.20;6.57;;;;;;;18.37;63.74;96800.56;5051814;28;20226;-69
2021/08/21 03:29:59;;;;;;;11.30;7.00;;;;;;;18.31;63.86;96798.75;5052168;28;20527;-71
2021/08/21 03:32:25;;;;;;;7.00;6.30;;;;;;;18.31;63.64;96801.41;5050605;28;20187;-71
2021/08/21 03:34:51;;;;;;;9.33;6.77;;;;;;;18.34;63.47;96795.66;5050961;28;20191;-71
2021/08/21 03:37:16;;;;;;;9.40;6.37;;;;;;;18.38;63.30;96801.38;5051208;28;20219;-71
2021/08/21 03:39:42;;;;;;;7.00;6.30;;;;;;;18.38;63.28;96802.19;5030073;28;20654;-70
2021/08/21 03:42:08;;;;;;;6.20;5.50;;;;;;;18.40;63.24;96794.00;5047994;28;20207;-69
2021/08/21 03:44:33;;;;;;;6.40;5.70;;;;;;;18.35;63.16;96797.28;5051171;28;20187;-69
2021/08/21 03:46:59;;;;;;;6.67;5.97;;;;;;;18.36;63.32;96798.13;5055520;28;20225;-70
2021/08/21 03:49:24;;;;;;;6.60;6.00;;;;;;;18.27;63.59;96800.19;5054897;28;20621;-69
2021/08/21 03:51:50;;;;;;;6.70;5.70;;;;;;;18.22;63.81;96802.66;5055854;28;20240;-70
2021/08/21 03:54:16;;;;;;;6.37;5.77;;;;;;;18.20;63.98;96805.53;5051975;28;20661;-70
2021/08/21 03:56:41;;;;;;;7.40;5.57;;;;;;;18.12;64.05;96792.53;5057927;28;20226;-70
2021/08/21 03:59:07;;;;;;;6.97;6.27;;;;;;;18.09;64.34;96792.94;5051160;28;20190;-70
2021/08/21 04:01:33;;;;;;;7.07;6.03;;;;;;;18.12;64.23;96795.16;5050761;28;20684;-70
2021/08/21 04:03:59;;;;;;;5.83;5.23;;;;;;;18.14;64.08;96794.94;5050784;28;20709;-70
2021/08/21 04:06:24;;;;;;;6.30;5.70;;;;;;;17.99;64.45;96788.06;5058057;28;20207;-70
2021/08/21 04:08:50;;;;;;;7.60;5.93;;;;;;;18.00;64.48;96788.91;5051295;28;20190;-70
2021/08/21 04:11:16;;;;;;;7.53;6.27;;;;;;;18.00;64.48;96795.00;5050615;28;20198;-70
2021/08/21 04:13:42;;;;;;;6.23;5.63;;;;;;;17.95;64.81;96792.16;5050635;28;20429;-70
2021/08/21 04:16:08;;;;;;;7.70;5.77;;;;;;;17.98;64.64;96797.03;5051075;28;20189;-69
2021/08/21 04:18:34;;;;;;;8.40;6.77;;;;;;;18.02;64.56;96803.56;5046506;28;20586;-70
2021/08/21 04:20:59;;;;;;;7.30;6.00;;;;;;;18.04;64.47;96804.19;5054473;28;20453;-70
2021/08/21 04:23:25;;;;;;;6.40;5.80;;;;;;;18.04;64.35;96801.53;5058259;28;20194;-70
2021/08/21 04:25:50;;;;;;;7.23;6.07;;;;;;;18.02;64.51;96805.41;5056928;28;20638;-70
2021/08/21 04:28:16;;;;;;;7.70;6.03;;;;;;;18.01;64.53;96809.88;5050836;28;20210;-70
2021/08/21 04:30:42;;;;;;;9.60;6.00;;;;;;;18.03;64.38;96804.38;5050033;28;20191;-70
2021/08/21 04:33:08;;;;;;;6.43;5.80;;;;;;;18.01;64.60;96811.75;5050788;28;20487;-70
2021/08/21 04:35:34;;;;;;;7.27;6.43;;;;;;;17.98;64.65;96804.19;5050112;28;20426;-70
2021/08/21 04:38:01;;;;;;;7.27;6.27;;;;;;;18.02;64.57;96808.06;5048300;28;20223;-70
2021/08/21 04:40:28;;;;;;;6.63;5.83;;;;;;;18.02;64.53;96806.22;5050504;28;20584;-70
2021/08/21 04:42:53;;;;;;;7.43;6.03;;;;;;;18.11;64.38;96812.09;5029857;28;20520;-70
2021/08/21 04:45:19;;;;;;;7.13;6.47;;;;;;;18.11;64.05;96807.59;5050095;28;20511;-70
2021/08/21 04:47:44;;;;;;;6.77;5.77;;;;;;;18.16;64.30;96811.47;5055505;28;20778;-70
2021/08/21 04:50:10;;;;;;;6.47;5.87;;;;;;;18.20;64.23;96812.69;5050238;28;20191;-69
2021/08/21 04:52:36;;;;;;;7.20;6.20;;;;;;;18.23;64.07;96815.72;5050464;28;20187;-69
2021/08/21 04:55:03;;;;;;;8.50;5.70;;;;;;;18.33;63.79;96820.59;5049444;28;20454;-69
2021/08/21 04:57:29;;;;;;;7.67;5.73;;;;;;;18.43;63.47;96820.09;5041377;28;20207;-70
2021/08/21 04:59:54;;;;;;;8.53;5.90;;;;;;;18.54;63.40;96822.09;5050205;28;20429;-69
2021/08/21 05:02:20;;;;;;;7.10;5.57;;;;;;;18.65;63.24;96819.81;5050192;28;20210;-70
2021/08/21 05:04:46;;;;;;;7.23;5.87;;;;;;;18.74;62.81;96821.19;5049492;28;20191;-70
2021/08/21 05:07:11;;;;;;;6.80;5.70;;;;;;;18.80;62.71;96827.47;5050249;28;20203;-70
2021/08/21 05:09:37;;;;;;;8.17;5.50;;;;;;;18.88;62.53;96822.72;5057319;28;20198;-70
2021/08/21 05:12:03;;;;;;;7.83;5.97;;;;;;;19.00;62.30;96822.84;5050290;28;20258;-70
2021/08/21 05:14:28;;;;;;;5.80;5.23;;;;;;;19.18;61.82;96818.66;5040582;28;20194;-70
2021/08/21 05:16:54;;;;;;;7.47;6.20;;;;;;;19.32;61.44;96822.00;5050155;28;20340;-70
2021/08/21 05:21:52;;;;;;;9.23;5.83;;;;;;;19.55;60.81;96815.25;5052026;28;20572;-69
2021/08/21 05:24:18;;;;;;;9.80;5.60;;;;;;;19.67;60.16;96818.81;5045186;28;20486;-70
2021/08/21 05:26:47;;;;;;;5.87;5.20;;;;;;;19.79;59.80;96821.56;5042213;28;20528;-71
2021/08/21 05:29:16;;;;;;;6.00;5.40;;;;;;;19.89;59.42;96821.09;5049952;28;20487;-70
2021/08/21 05:31:42;;;;;;;7.00;5.20;;;;;;;19.98;59.48;96817.09;5049890;28;20422;-70
2021/08/21 05:34:12;;;;;;;7.87;5.87;;;;;;;20.05;59.14;96815.16;5048459;28;20433;-69
2021/08/21 05:36:38;;;;;;;6.30;5.70;;;;;;;20.12;58.65;96825.72;5044334;28;20453;-70
2021/08/21 05:39:06;;;;;;;6.77;5.87;;;;;;;20.14;58.08;96828.97;5069838;28;20439;-70
2021/08/21 05:41:32;;;;;;;10.60;6.03;;;;;;;20.20;57.77;96832.59;5069336;28;20226;-70
2021/08/21 05:43:57;;;;;;;5.87;5.10;;;;;;;20.29;57.73;96820.59;5069004;28;20432;-69
2021/08/21 05:46:23;;;;;;;9.63;5.50;;;;;;;20.44;57.26;96822.06;5069571;28;20210;-69
2021/08/21 05:48:49;;;;;;;5.53;5.03;;;;;;;20.56;56.91;96830.91;5070048;28;20266;-70
2021/08/21 05:51:14;;;;;;;5.30;4.80;;;;;;;20.70;56.67;96821.69;5069693;28;20664;-70
2021/08/21 05:53:40;;;;;;;5.63;5.00;;;;;;;20.85;56.65;96828.50;5061527;28;20214;-70
2021/08/21 05:56:05;;;;;;;5.60;5.10;;;;;;;20.92;55.87;96833.72;5069251;28;20252;-70
2021/08/21 05:58:31;;;;;;;6.20;5.60;;;;;;;21.02;55.93;96829.47;5069991;28;20189;-71
2021/08/21 06:00:57;;;;;;;6.43;4.83;;;;;;;21.16;55.61;96826.59;5073123;28;20203;-70
2021/08/21 06:03:22;;;;;;;10.13;5.43;;;;;;;21.30;55.06;96829.84;5072964;28;20259;-69
2021/08/21 06:05:48;;;;;;;5.47;4.97;;;;;;;21.39;54.77;96833.78;5060446;28;20191;-70
2021/08/21 06:08:13;;;;;;;5.30;4.80;;;;;;;21.53;54.33;96837.06;5069587;28;20281;-70
2021/08/21 06:10:41;;;;;;;5.27;4.70;;;;;;;21.59;54.11;96833.47;5073943;28;20182;-70
2021/08/21 06:13:07;;;;;;;5.23;4.73;;;;;;;21.71;53.87;96838.81;5073428;28;20189;-70
2021/08/21 06:15:32;;;;;;;5.87;5.10;;;;;;;21.56;54.19;96841.91;5072388;28;20421;-69
2021/08/21 06:17:58;;;;;;;10.60;4.70;;;;;;;21.68;53.57;96836.63;5072587;28;20653;-70
2021/08/21 06:20:23;;;;;;;7.87;5.40;;;;;;;21.78;53.38;96833.38;5065421;28;20194;-69
2021/08/21 06:22:49;;;;;;;5.50;5.00;;;;;;;21.84;53.38;96839.63;5074233;28;20187;-70
2021/08/21 06:25:14;;;;;;;4.93;4.50;;;;;;;21.84;53.41;96850.28;5071804;28;20185;-70
2021/08/21 06:27:40;;;;;;;6.17;4.97;;;;;;;21.78;53.43;96844.03;5067098;28;20632;-70
2021/08/21 06:30:07;;;;;;;6.17;5.57;;;;;;;21.91;53.30;96841.13;5049188;28;20184;-70
2021/08/21 06:32:32;;;;;;;5.53;4.97;;;;;;;22.03;53.04;96838.44;5073427;28;20696;-70
2021/08/21 06:34:58;;;;;;;9.77;5.37;;;;;;;22.16;52.83;96840.03;5073090;28;20429;-71
2021/08/21 06:37:23;;;;;;;4.97;4.53;;;;;;;22.14;52.55;96844.81;5057857;28;20641;-70
2021/08/21 06:39:49;;;;;;;5.87;5.10;;;;;;;22.14;52.74;96839.47;5073601;28;20681;-71
2021/08/21 06:42:15;;;;;;;6.50;5.50;;;;;;;22.00;52.59;96840.75;5069847;28;20210;-72
2021/08/21 06:44:40;;;;;;;7.37;5.37;;;;;;;22.08;52.08;96838.53;5058202;28;20266;-71
2021/08/21 06:47:06;;;;;;;7.43;5.50;;;;;;;22.21;52.04;96834.78;5072887;28;20206;-71
2021/08/21 06:49:31;;;;;;;10.93;5.63;;;;;;;22.43;51.63;96839.50;5071848;28;20182;-70
2021/08/21 06:51:57;;;;;;;10.20;4.90;;;;;;;22.60;51.18;96838.75;5070804;28;20182;-71
2021/08/21 06:54:23;;;;;;;5.73;5.03;;;;;;;22.72;51.08;96836.84;5070671;28;20184;-71
2021/08/21 06:56:48;;;;;;;7.00;5.37;;;;;;;;;;5071710;28;20217;-71
2021/08/21 06:59:13;;;;;;;7.67;4.90;;;;;;;22.91;50.49;96847.34;5072442;28;20273;-70
2021/08/21 07:01:39;;;;;;;8.17;6.00;;;;;;;23.13;49.82;96844.75;5072487;28;20305;-72
2021/08/21 07:04:05;;;;;;;6.93;5.20;;;;;;;23.34;49.91;96842.47;5071766;28;20196;-70
2021/08/21 07:06:30;;;;;;;10.03;5.33;;;;;;;23.45;49.58;96841.56;5057754;28;20576;-70
2021/08/21 07:08:57;;;;;;;11.43;5.93;;;;;;;23.19;50.21;96848.34;5072377;28;20657;-72
2021/08/21 07:11:22;;;;;;;6.40;5.50;;;;;;;23.42;49.18;96844.72;5070015;28;20186;-70
2021/08/21 07:13:48;;;;;;;7.13;5.07;;;;;;;23.55;49.19;96840.91;5071172;28;20428;-71
2021/08/21 07:16:14;;;;;;;10.37;5.70;;;;;;;23.72;49.12;96847.03;5072820;28;20190;-70
2021/08/21 07:18:39;;;;;;;9.20;5.53;;;;;;;23.86;48.64;96841.34;5067275;28;20190;-70
2021/08/21 07:21:08;;;;;;;7.43;4.90;;;;;;;24.05;48.58;96845.38;5069584;28;20210;-72
2021/08/21 07:23:34;;;;;;;6.83;5.47;;;;;;;24.14;48.48;96844.94;5072517;28;20277;-71
2021/08/21 07:26:00;;;;;;;5.77;5.10;;;;;;;24.40;47.71;96840.69;5071198;28;20520;-70
2021/08/21 07:28:25;;;;;;;7.60;5.63;;;;;;;24.44;48.15;96836.47;5071903;28;20239;-70
2021/08/21 07:30:51;;;;;;;5.80;5.30;;;;;;;24.59;47.65;96838.50;5073073;28;20184;-71
2021/08/21 07:33:16;;;;;;;6.17;4.93;;;;;;;24.59;47.32;96843.84;5071551;28;20186;-71
2021/08/21 07:35:42;;;;;;;5.40;4.70;;;;;;;24.91;46.53;96834.28;5063098;28;20659;-72
2021/08/21 07:38:07;;;;;;;5.77;4.90;;;;;;;25.11;46.24;96836.34;5065666;28;20217;-71
2021/08/21 07:40:35;;;;;;;7.83;6.27;;;;;;;25.02;46.24;96835.19;5073662;28;20185;-70
2021/08/21 07:43:01;;;;;;;6.00;5.20;;;;;;;24.89;46.64;96836.44;5081674;28;20178;-70
2021/08/21 07:45:26;;;;;;;4.87;4.43;;;;;;;25.10;45.62;96842.75;5072972;28;20436;-70
2021/08/21 07:47:52;;;;;;;5.87;4.60;;;;;;;25.32;44.90;96833.84;5072354;28;20788;-70
2021/08/21 07:50:18;;;;;;;7.83;4.17;;;;;;;25.35;45.03;96836.00;5070993;28;20250;-70
2021/08/21 07:52:45;;;;;;;4.67;4.20;;;;;;;25.32;44.66;96836.53;5071149;28;20296;-71
2021/08/21 07:55:11;;;;;;;4.47;4.07;;;;;;;25.33;45.28;96846.19;5069350;28;20482;-70
2021/08/21 07:57:36;;;;;;;4.77;4.37;;;;;;;25.55;43.90;96846.09;5072135;28;20440;-70
2021/08/21 08:00:03;;;;;;;6.90;4.20;;;;;;;25.56;43.59;96845.03;5072153;28;20182;-71
2021/08/21 08:02:28;;;;;;;4.70;4.20;;;;;;;25.34;44.64;96847.78;5069479;28;20591;-72
2021/08/21 08:04:54;;;;;;;4.70;4.30;;;;;;;25.57;44.15;96846.63;5056520;28;20427;-71
2021/08/21 08:07:19;;;;;;;5.07;4.50;;;;;;;25.54;44.03;96847.97;5055083;28;20220;-71
2021/08/21 08:09:45;;;;;;;5.00;4.50;;;;;;;25.77;43.62;96848.66;5071754;28;20270;-70
2021/08/21 08:12:10;;;;;;;8.40;4.50;;;;;;;26.12;43.08;96849.94;5070681;28;20239;-71
2021/08/21 08:14:36;;;;;;;8.87;4.80;;;;;;;26.35;42.97;96850.56;5069646;28;20244;-71
2021/08/21 08:17:01;;;;;;;5.90;5.30;;;;;;;26.11;42.56;96856.38;5071046;28;20208;-70
2021/08/21 08:19:27;;;;;;;4.87;4.37;;;;;;;26.22;42.97;96859.91;5062753;28;20244;-70
2021/08/21 08:21:53;;;;;;;5.27;4.10;;;;;;;26.40;42.51;96855.97;5070927;28;20217;-70
2021/08/21 08:24:19;;;;;;;6.23;4.67;;;;;;;26.20;42.87;96854.81;5070786;28;20182;-70
2021/08/21 08:26:45;;;;;;;7.40;4.07;;;;;;;26.04;43.54;96855.78;5071613;28;20194;-70
2021/08/21 08:29:11;;;;;;;4.43;4.03;;;;;;;26.27;43.71;96857.28;5071289;28;20792;-70
2021/08/21 08:31:37;;;;;;;6.40;4.70;;;;;;;26.71;42.44;96856.06;5071178;28;20448;-71
2021/08/21 08:34:03;;;;;;;6.63;4.00;;;;;;;27.00;42.15;96849.41;5053336;28;20171;-71
2021/08/21 08:36:29;;;;;;;4.77;4.27;;;;;;;27.30;41.52;96856.69;5039684;28;20209;-72
2021/08/21 08:38:54;;;;;;;6.80;4.20;;;;;;;27.32;41.42;96857.25;5071077;28;20428;-72
2021/08/21 08:41:21;;;;;;;5.60;4.30;;;;;;;27.05;41.80;96852.91;5071127;28;20209;-71
2021/08/21 08:43:47;;;;;;;4.60;4.20;;;;;;;26.52;42.85;96851.16;5058782;28;20202;-71
2021/08/21 08:46:12;;;;;;;4.67;4.27;;;;;;;26.62;43.04;96857.63;5067289;28;20888;-72
2021/08/21 08:48:39;;;;;;;5.50;4.00;;;;;;;26.70;42.78;96851.75;5071344;28;20193;-70
2021/08/21 08:51:06;;;;;;;7.63;4.20;;;;;;;27.21;41.49;96847.56;5069765;28;20178;-70
2021/08/21 08:53:31;;;;;;;4.57;4.10;;;;;;;27.45;41.68;96847.84;5068865;28;21240;-70
2021/08/21 08:55:57;;;;;;;8.40;4.70;;;;;;;27.81;41.13;96844.28;5069959;28;20427;-71
2021/08/21 08:58:23;;;;;;;4.70;4.30;;;;;;;27.91;41.16;96857.72;5070300;28;20203;-71
2021/08/21 09:00:48;;;;;;;5.53;4.00;;;;;;;27.74;41.37;96848.06;5071636;28;20296;-70
2021/08/21 09:03:20;;;;;;;4.10;3.80;;;;;;;27.92;41.15;96837.78;5066587;28;20183;-69
2021/08/21 09:05:45;;;;;;;4.23;3.80;;;;;;;28.22;40.86;96848.75;5049312;28;20207;-71
2021/08/21 09:08:21;;;;;;;4.70;4.13;;;;;;;28.58;39.81;96843.19;5067983;28;21189;-71
2021/08/21 09:10:46;;;;;;;6.57;4.50;;;;;;;28.50;40.79;96844.59;5076814;28;20174;-72
2021/08/21 09:13:15;;;;;;;5.07;4.57;;;;;;;28.47;39.69;96847.84;5084026;28;20424;-70
2021/08/21 09:15:46;;;;;;;12.63;4.30;;;;;;;28.63;39.55;96838.59;5077942;28;20205;-71
2021/08/21 09:18:19;;;;;;;7.20;5.43;;;;;;;28.83;39.64;96845.00;5066869;28;20497;-71
2021/08/21 09:20:47;;;;;;;4.50;4.10;;;;;;;29.08;38.97;96851.28;5072337;28;20495;-73
2021/08/21 09:23:23;;;;;;;4.77;4.27;;;;;;;28.92;39.13;96846.00;5052479;28;20461;-70
2021/08/21 09:25:51;;;;;;;8.70;4.03;;;;;;;28.78;39.71;96842.31;5083722;28;20878;-71
2021/08/21 09:28:27;;;;;;;4.93;4.47;;;;;;;28.86;39.46;96854.41;5081764;28;20448;-71
2021/08/21 09:31:06;;;;;;;12.90;5.30;;;;;;;28.22;41.76;96846.88;5070632;28;20508;-71
2021/08/21 09:33:34;;;;;;;5.80;4.30;;;;;;;28.35;41.52;96846.28;5070853;28;20420;-69
2021/08/21 09:35:59;;;;;;;7.13;4.60;;;;;;;28.67;40.47;96844.22;5060032;28;20426;-72
2021/08/21 09:38:30;;;;;;;5.00;3.90;;;;;;;28.95;39.71;96839.22;5057323;28;20436;-71
2021/08/21 09:41:09;;;;;;;6.20;5.60;;;;;;;29.14;38.96;96846.66;5074553;28;20238;-72
2021/08/21 09:43:38;;;;;;;6.00;5.40;;;;;;;27.97;41.29;96840.47;5074075;28;20829;-69
2021/08/21 09:46:18;;;;;;;5.70;5.07;;;;;;;29.18;39.81;96839.59;5073015;28;20456;-70
2021/08/21 09:48:53;;;;;;;8.30;5.10;;;;;;;29.09;39.87;96834.81;5054312;28;20811;-69
2021/08/21 09:51:45;;;;;;;6.90;5.00;;;;;;;29.25;39.53;96838.19;5055348;28;20413;-70
2021/08/21 09:54:19;;;;;;;10.70;5.40;;;;;;;29.58;38.91;96835.78;5073036;28;20465;-74
2021/08/21 09:56:51;;;;;;;6.60;5.60;;;;;;;29.64;38.77;96833.84;5072621;28;20440;-70
2021/08/21 09:59:16;;;;;;;7.93;6.33;;;;;;;29.47;39.26;96831.56;5073158;28;20478;-71
2021/08/21 10:01:43;;;;;;;6.17;5.30;;;;;;;29.39;39.67;96829.47;5040649;28;20483;-72
2021/08/21 10:04:08;;;;;;;5.70;5.00;;;;;;;29.66;39.00;96828.13;5075138;28;20189;-71
2021/08/21 10:06:35;;;;;;;6.83;4.87;;;;;;;30.03;38.26;96821.28;5061141;28;20437;-71
2021/08/21 10:09:19;;;;;;;15.93;5.37;;;;;;;30.07;37.94;96822.34;5072911;28;20683;-71
2021/08/21 10:11:45;;;;;;;5.87;5.10;;;;;;;29.41;39.28;96824.59;5074098;28;20425;-70
2021/08/21 10:14:12;;;;;;;5.83;4.90;;;;;;;30.19;38.01;96820.03;5071734;28;20425;-71
2021/08/21 10:16:38;;;;;;;7.33;4.73;;;;;;;30.53;37.26;96817.41;5056117;28;20478;-70
2021/08/21 10:19:04;;;;;;;7.07;6.07;;;;;;;30.50;37.67;96819.59;5065298;28;20440;-70
2021/08/21 10:21:30;;;;;;;6.77;5.73;;;;;;;30.21;38.14;96816.22;5064791;28;20207;-71
2021/08/21 10:23:56;;;;;;;5.60;5.10;;;;;;;30.36;37.73;96818.75;5063332;28;20421;-70
2021/08/21 10:26:34;;;;;;;5.80;5.30;;;;;;;30.75;37.09;96806.06;5072209;28;20455;-71
2021/08/21 10:29:00;;;;;;;10.93;4.97;;;;;;;30.59;37.32;96814.38;5055895;28;20486;-70
2021/08/21 10:31:40;;;;;;;8.03;5.50;;;;;;;30.46;37.20;96813.19;5073343;28;20428;-71
2021/08/21 10:34:09;;;;;;;5.70;5.10;;;;;;;30.52;37.71;96807.69;5072483;28;20182;-71
2021/08/21 10:36:48;;;;;;;12.20;5.03;;;;;;;30.39;37.64;96810.03;5056918;28;20456;-70
2021/08/21 10:39:20;;;;;;;6.87;4.93;;;;;;;30.74;37.15;96802.56;5070613;28;20416;-70
2021/08/21 10:41:46;;;;;;;5.87;5.20;;;;;;;30.55;37.75;96809.84;5072821;28;20558;-72
2021/08/21 10:44:42;;;;;;;5.87;5.10;;;;;;;31.08;36.86;96801.47;5072619;28;20425;-70
2021/08/21 10:47:08;;;;;;;6.17;5.67;;;;;;;31.02;36.76;96808.06;5072080;28;20820;-70
2021/08/21 10:49:42;;;;;;;6.00;5.43;;;;;;;31.32;36.14;96806.00;5071789;28;20521;-71
2021/08/21 10:52:47;;;;;;;10.13;6.00;;;;;;;30.76;36.65;96804.97;5072878;28;20501;-71
2021/08/21 10:55:24;;;;;;;5.07;4.67;;;;;;;31.45;35.68;96804.41;5072213;28;20429;-71
2021/08/21 10:58:02;;;;;;;7.23;5.20;;;;;;;31.53;35.50;96802.91;5071160;28;20451;-73
2021/08/21 11:00:40;;;;;;;7.07;5.57;;;;;;;31.07;36.44;96797.16;5072834;28;20455;-71
2021/08/21 11:03:05;;;;;;;5.70;5.10;;;;;;;31.54;35.91;96801.81;5072472;28;20481;-72
2021/08/21 11:05:55;;;;;;;8.00;5.47;;;;;;;31.84;35.37;96799.66;5064075;28;20588;-71
2021/08/21 11:08:22;;;;;;;12.70;5.40;;;;;;;31.74;35.84;96799.88;5070517;28;20580;-71
2021/08/21 11:10:48;;;;;;;8.93;5.80;;;;;;;32.19;34.69;96800.03;5072867;28;20524;-71
2021/08/21 11:13:59;;;;;;;7.43;5.50;;;;;;;32.25;33.86;96798.06;5070308;28;20424;-71
2021/08/21 11:19:22;;;;;;;5.77;4.77;;;;;;;32.27;33.58;96796.63;5063685;28;20502;-71
2021/08/21 11:21:49;;;;;;;5.43;4.93;;;;;;;32.33;33.73;96794.63;5071523;28;20795;-71
2021/08/21 11:24:28;;;;;;;6.93;4.90;;;;;;;31.84;34.60;96791.53;5070951;28;20936;-71
2021/08/21 11:27:27;;;;;;;9.60;5.60;;;;;;;32.09;34.10;96784.00;5072289;28;20441;-71
2021/08/21 11:30:21;;;;;;;5.50;5.10;;;;;;;32.93;31.97;96788.13;5071820;28;20478;-70
2021/08/21 11:33:17;;;;;;;7.47;5.57;;;;;;;33.01;31.69;96786.59;5071496;28;20448;-70
2021/08/21 11:35:45;;;;;;;5.90;5.17;;;;;;;32.81;32.39;96784.38;5048514;28;20434;-71
2021/08/21 11:38:13;;;;;;;8.70;4.70;;;;;;;32.77;32.25;96781.44;5066334;28;20576;-72
2021/08/21 11:40:42;;;;;;;6.47;5.00;;;;;;;33.07;32.24;96785.38;5071982;28;20420;-71
2021/08/21 11:43:12;;;;;;;6.80;5.27;;;;;;;32.51;32.81;96776.63;5071626;28;20538;-71